Terminal Aerodrome Forecast
Issued by NWS

Home | Current Version | Previous Version | Text Only | Print | Product List | Glossary On
Versions: 1 2 3 4 5 6 7 8 9 10 11 12 13 14 15 16 17 18 19 20
000
FTUS43 KMPX 202300
TAFAXN
TAF
KAXN 202324Z 2100/2124 13008KT P6SM SCT035 BKN110
     FM210600 13008KT 6SM BR VCSH SCT025 OVC050
     FM210800 13010KT 6SM -SHRA VCTS SCT025 BKN050CB
      TEMPO 2108/2111 2SM SHRA BKN025
     FM211110 13006KT 4SM -SHRA BR BKN008 OVC015
     FM211500 14006KT 6SM BR BKN015 OVC035
     FM211800 17007KT P6SM BKN035=

USA.gov is the U.S. government's official web portal to all federal, state and local government web resources and services.